createdAt,value
2022-08-11T00:01:54.212Z,21.60
2022-08-11T00:04:22.518Z,21.60
2022-08-11T00:06:50.551Z,21.60
2022-08-11T00:09:19.677Z,21.60
2022-08-11T00:11:49.121Z,21.60
2022-08-11T00:14:18.336Z,21.60
2022-08-11T00:16:55.257Z,21.60
2022-08-11T00:20:11.601Z,21.50
2022-08-11T00:22:20.810Z,21.50
2022-08-11T00:24:53.684Z,21.50
2022-08-11T00:27:32.200Z,21.50
2022-08-11T00:30:01.304Z,21.40
2022-08-11T00:32:29.836Z,21.40
2022-08-11T00:35:51.815Z,21.50
2022-08-11T00:37:49.240Z,21.40
2022-08-11T00:40:19.559Z,21.40
2022-08-11T00:42:49.569Z,21.30
2022-08-11T00:45:23.329Z,21.30
2022-08-11T00:48:00.202Z,21.30
2022-08-11T00:50:31.804Z,21.30
2022-08-11T00:53:09.381Z,21.30
2022-08-11T00:55:55.539Z,21.30
2022-08-11T00:58:53.950Z,21.30
2022-08-11T01:01:28.111Z,21.20
2022-08-11T01:04:15.105Z,21.20
2022-08-11T01:06:53.454Z,21.20
2022-08-11T01:09:25.491Z,21.20
2022-08-11T01:12:00.924Z,21.10
2022-08-11T01:15:01.622Z,21.20
2022-08-11T01:17:59.104Z,21.10
2022-08-11T01:20:49.481Z,21.20
2022-08-11T01:23:44.373Z,21.10
2022-08-11T01:26:26.968Z,21.00
2022-08-11T01:29:09.613Z,21.00
2022-08-11T01:31:49.055Z,21.00
2022-08-11T01:34:37.684Z,20.90
2022-08-11T01:37:17.780Z,20.90
2022-08-11T01:40:10.626Z,20.80
2022-08-11T01:43:16.620Z,20.80
2022-08-11T01:45:48.004Z,20.70
2022-08-11T01:48:20.566Z,20.70
2022-08-11T01:50:55.341Z,20.50
2022-08-11T01:53:29.374Z,20.50
2022-08-11T01:56:03.253Z,20.50
2022-08-11T01:58:43.296Z,20.50
2022-08-11T02:01:17.592Z,20.50
2022-08-11T02:03:48.180Z,20.50
2022-08-11T02:06:37.343Z,20.50
2022-08-11T02:09:11.061Z,20.50
2022-08-11T02:11:41.210Z,20.40
2022-08-11T02:14:19.188Z,20.40
2022-08-11T02:16:49.827Z,20.40
2022-08-11T02:19:41.009Z,20.40
2022-08-11T02:22:36.300Z,20.40
2022-08-11T02:25:08.628Z,20.40
2022-08-11T02:27:41.249Z,20.30
2022-08-11T02:30:10.573Z,20.40
2022-08-11T02:32:59.878Z,20.30
2022-08-11T02:35:28.731Z,20.30
2022-08-11T02:38:04.603Z,20.30
2022-08-11T02:40:37.039Z,20.30
2022-08-11T02:43:18.973Z,20.20
2022-08-11T02:45:54.645Z,20.30
2022-08-11T02:48:48.216Z,20.20
2022-08-11T02:51:22.121Z,20.20
2022-08-11T02:53:58.085Z,20.10
2022-08-11T02:56:38.516Z,20.20
2022-08-11T02:59:26.423Z,20.20
2022-08-11T03:02:00.666Z,20.10
2022-08-11T03:04:44.949Z,20.00
2022-08-11T03:07:28.764Z,20.10
2022-08-11T03:10:01.542Z,20.10
2022-08-11T03:12:53.578Z,20.00
2022-08-11T03:15:41.347Z,20.00
2022-08-11T03:18:16.999Z,20.00
2022-08-11T03:20:47.516Z,19.90
2022-08-11T03:23:20.166Z,19.80
2022-08-11T03:25:52.070Z,19.80
2022-08-11T03:28:28.390Z,19.80
2022-08-11T03:31:02.546Z,19.80
2022-08-11T03:33:49.434Z,19.80
2022-08-11T03:37:15.107Z,19.70
2022-08-11T03:39:24.919Z,19.70
2022-08-11T03:42:04.302Z,19.70
2022-08-11T03:44:43.255Z,19.70
2022-08-11T03:47:19.143Z,19.60
2022-08-11T03:49:55.886Z,19.60
2022-08-11T03:52:28.066Z,19.60
2022-08-11T03:55:01.672Z,19.50
2022-08-11T03:57:41.360Z,19.50
2022-08-11T04:00:20.231Z,19.40
2022-08-11T04:03:04.619Z,19.40
2022-08-11T04:05:47.216Z,19.40
2022-08-11T04:08:34.106Z,19.40
2022-08-11T04:11:23.048Z,19.50
2022-08-11T04:14:30.064Z,19.50
2022-08-11T04:17:09.639Z,19.50
2022-08-11T04:19:55.019Z,19.40
2022-08-11T04:22:39.284Z,19.40
2022-08-11T04:25:17.440Z,19.40
2022-08-11T04:28:02.938Z,19.40
2022-08-11T04:30:43.818Z,19.40
2022-08-11T04:33:34.348Z,19.30
2022-08-11T04:36:10.183Z,19.40
2022-08-11T04:38:59.330Z,19.30
2022-08-11T04:41:34.305Z,19.30
2022-08-11T04:44:32.154Z,19.30
2022-08-11T04:48:01.731Z,19.30
2022-08-11T04:51:08.652Z,19.40
2022-08-11T04:54:04.246Z,19.50
2022-08-11T04:56:51.293Z,19.50
2022-08-11T04:59:52.119Z,19.50
2022-08-11T05:02:35.526Z,19.60
2022-08-11T05:05:27.983Z,19.60
2022-08-11T05:08:15.289Z,19.60
2022-08-11T05:10:52.562Z,19.70
2022-08-11T05:13:43.414Z,19.70
2022-08-11T05:16:30.251Z,19.70
2022-08-11T05:19:17.420Z,19.80
2022-08-11T05:22:06.281Z,19.80
2022-08-11T05:24:56.371Z,19.90
2022-08-11T05:27:48.947Z,20.00
2022-08-11T05:30:34.575Z,20.00
2022-08-11T05:33:22.134Z,20.10
2022-08-11T05:36:02.227Z,20.20
2022-08-11T05:38:49.179Z,20.30
2022-08-11T05:41:37.532Z,20.40
2022-08-11T05:44:24.798Z,20.50
2022-08-11T05:47:10.625Z,20.60
2022-08-11T05:49:58.091Z,20.80
2022-08-11T05:52:44.875Z,20.90
2022-08-11T05:55:33.884Z,21.00
2022-08-11T05:58:03.157Z,21.20
2022-08-11T06:00:33.788Z,21.20
2022-08-11T06:03:07.213Z,21.30
2022-08-11T06:05:43.226Z,21.50
2022-08-11T06:08:13.182Z,21.60
2022-08-11T06:10:42.307Z,21.70
2022-08-11T06:13:11.181Z,21.80
2022-08-11T06:15:46.837Z,21.90
2022-08-11T06:18:14.940Z,22.10
2022-08-11T06:20:47.380Z,22.30
2022-08-11T06:23:17.975Z,22.40
2022-08-11T06:25:46.207Z,22.50
2022-08-11T06:28:20.350Z,22.60
2022-08-11T06:30:50.098Z,22.70
2022-08-11T06:33:20.494Z,22.90
2022-08-11T06:35:52.327Z,22.90
2022-08-11T06:38:26.825Z,23.00
2022-08-11T06:41:09.396Z,23.20
2022-08-11T06:43:55.941Z,23.30
2022-08-11T06:46:28.339Z,23.30
2022-08-11T06:48:56.856Z,23.40
2022-08-11T06:51:23.932Z,23.50
2022-08-11T06:54:03.721Z,23.60
2022-08-11T06:57:01.684Z,23.70
2022-08-11T06:59:56.029Z,23.70
2022-08-11T07:02:30.951Z,23.70
2022-08-11T07:05:01.807Z,23.80
2022-08-11T07:08:34.273Z,23.90
2022-08-11T07:11:19.655Z,24.00
2022-08-11T07:14:05.523Z,24.00
2022-08-11T07:16:35.318Z,24.20
2022-08-11T07:19:23.244Z,24.30
2022-08-11T07:22:08.774Z,24.50
2022-08-11T07:25:02.244Z,24.60
2022-08-11T07:27:49.957Z,24.70
2022-08-11T07:30:18.291Z,24.70
2022-08-11T07:32:49.052Z,24.80
2022-08-11T07:35:18.995Z,24.90
2022-08-11T07:37:49.130Z,24.90
2022-08-11T07:40:22.994Z,24.90
2022-08-11T07:42:51.295Z,24.90
2022-08-11T07:45:37.080Z,25.00
2022-08-11T07:48:23.320Z,25.00
2022-08-11T07:51:10.062Z,25.10
2022-08-11T07:54:16.279Z,25.20
2022-08-11T07:56:39.521Z,25.30
2022-08-11T08:00:04.304Z,25.30
2022-08-11T08:02:37.913Z,25.40
2022-08-11T08:05:25.254Z,25.50
2022-08-11T08:08:12.167Z,25.70
2022-08-11T08:10:57.874Z,25.80
2022-08-11T08:13:43.089Z,25.80
2022-08-11T08:16:30.244Z,25.80
2022-08-11T08:18:58.111Z,26.00
2022-08-11T08:21:26.352Z,26.10
2022-08-11T08:23:56.705Z,26.20
2022-08-11T08:26:38.507Z,26.10
2022-08-11T08:29:24.630Z,26.30
2022-08-11T08:31:52.927Z,26.60
2022-08-11T08:34:21.160Z,26.80
2022-08-11T08:36:51.243Z,27.00
2022-08-11T08:39:22.251Z,27.20
2022-08-11T08:41:51.904Z,27.30
2022-08-11T08:44:37.890Z,27.50
2022-08-11T08:47:07.248Z,27.50
2022-08-11T08:49:40.524Z,27.60
2022-08-11T08:52:26.492Z,27.60
2022-08-11T08:55:02.675Z,27.70
2022-08-11T08:57:32.848Z,27.90
2022-08-11T09:00:08.838Z,28.10
2022-08-11T09:02:40.814Z,28.20
2022-08-11T09:05:09.895Z,28.40
2022-08-11T09:07:39.724Z,28.60
2022-08-11T09:10:11.331Z,28.60
2022-08-11T09:12:40.285Z,28.70
2022-08-11T09:15:10.330Z,28.70
2022-08-11T09:17:41.051Z,28.80
2022-08-11T09:20:09.989Z,29.00
2022-08-11T09:23:29.596Z,29.00
2022-08-11T09:26:03.427Z,29.30
2022-08-11T09:28:31.632Z,29.30
2022-08-11T09:31:02.104Z,29.40
2022-08-11T09:33:31.240Z,29.50
2022-08-11T09:36:19.253Z,29.80
2022-08-11T09:39:04.699Z,29.90
2022-08-11T09:42:01.322Z,30.00
2022-08-11T09:44:40.618Z,30.00
2022-08-11T09:47:15.430Z,30.30
2022-08-11T09:49:44.201Z,30.70
2022-08-11T09:52:14.214Z,31.00
2022-08-11T09:54:42.139Z,31.10
2022-08-11T09:57:37.035Z,31.30
2022-08-11T10:00:09.520Z,31.60
2022-08-11T10:02:42.681Z,31.70
2022-08-11T10:05:28.433Z,31.50
2022-08-11T10:07:57.097Z,31.40
2022-08-11T10:10:25.114Z,31.70
2022-08-11T10:12:57.380Z,31.70
2022-08-11T10:15:38.275Z,31.70
2022-08-11T10:18:24.899Z,31.80
2022-08-11T10:20:55.134Z,31.70
2022-08-11T10:24:01.026Z,31.60
2022-08-11T10:26:47.034Z,31.60
2022-08-11T10:29:37.554Z,31.50
2022-08-11T10:32:31.492Z,31.80
2022-08-11T10:35:00.366Z,31.70
2022-08-11T10:38:07.575Z,31.80
2022-08-11T10:40:23.192Z,31.90
2022-08-11T10:43:02.825Z,32.20
2022-08-11T10:45:50.134Z,32.40
2022-08-11T10:48:21.178Z,32.30
2022-08-11T10:51:07.306Z,32.30
2022-08-11T10:53:55.002Z,32.00
2022-08-11T10:56:40.610Z,32.00
2022-08-11T10:59:09.900Z,31.90
2022-08-11T11:01:41.019Z,31.80
2022-08-11T11:04:11.812Z,31.60
2022-08-11T11:06:45.198Z,31.60
2022-08-11T11:09:15.652Z,31.80
2022-08-11T11:12:02.466Z,32.10
2022-08-11T11:14:50.741Z,32.10
2022-08-11T11:17:57.433Z,32.20
2022-08-11T11:20:36.418Z,32.00
2022-08-11T11:23:08.472Z,32.20
2022-08-11T11:25:39.455Z,32.60
2022-08-11T11:28:16.055Z,33.00
2022-08-11T11:30:48.332Z,33.40
2022-08-11T11:33:22.064Z,33.50
2022-08-11T11:35:54.688Z,33.60
2022-08-11T11:38:22.495Z,33.50
2022-08-11T11:41:11.248Z,33.30
2022-08-11T11:43:39.162Z,33.30
2022-08-11T11:46:10.589Z,33.10
2022-08-11T11:48:40.925Z,33.30
2022-08-11T11:51:09.152Z,33.40
2022-08-11T11:53:37.104Z,33.30
2022-08-11T11:56:05.197Z,33.40
2022-08-11T11:58:50.628Z,33.00
2022-08-11T12:01:20.033Z,33.10
2022-08-11T12:03:50.785Z,33.00
2022-08-11T12:06:19.515Z,33.10
2022-08-11T12:08:49.482Z,33.60
2022-08-11T12:11:38.224Z,33.60
2022-08-11T12:14:10.665Z,33.90
2022-08-11T12:16:39.946Z,33.70
2022-08-11T12:19:11.669Z,33.50
2022-08-11T12:22:00.909Z,33.40
2022-08-11T12:24:46.836Z,33.30
2022-08-11T12:27:24.976Z,33.30
2022-08-11T12:29:55.823Z,33.40
2022-08-11T12:32:25.034Z,33.90
2022-08-11T12:34:57.706Z,34.00
2022-08-11T12:37:30.111Z,34.50
2022-08-11T12:40:50.277Z,34.20
2022-08-11T12:43:38.265Z,34.00
2022-08-11T12:46:08.476Z,33.80
2022-08-11T12:49:00.750Z,33.70
2022-08-11T12:52:11.245Z,33.90
2022-08-11T12:54:41.858Z,34.10
2022-08-11T12:57:36.903Z,34.40
2022-08-11T13:00:23.935Z,34.70
2022-08-11T13:03:09.511Z,34.70
2022-08-11T13:05:44.292Z,34.40
2022-08-11T13:08:15.739Z,34.00
2022-08-11T13:11:01.322Z,34.00
2022-08-11T13:13:54.948Z,34.40
2022-08-11T13:16:18.373Z,34.50
2022-08-11T13:18:46.338Z,34.50
2022-08-11T13:21:20.787Z,34.40
2022-08-11T13:24:00.930Z,34.50
2022-08-11T13:26:47.412Z,34.80
2022-08-11T13:29:19.443Z,35.10
2022-08-11T13:31:47.657Z,35.20
2022-08-11T13:34:16.277Z,35.10
2022-08-11T13:36:44.452Z,34.70
2022-08-11T13:39:14.337Z,35.00
2022-08-11T13:41:43.962Z,35.10
2022-08-11T13:44:12.789Z,35.00
2022-08-11T13:46:44.361Z,34.80
2022-08-11T13:49:12.370Z,34.90
2022-08-11T13:51:40.550Z,35.30
2022-08-11T13:54:09.271Z,35.90
2022-08-11T13:56:40.464Z,35.90
2022-08-11T13:59:09.033Z,35.50
2022-08-11T14:02:20.597Z,35.00
2022-08-11T14:04:32.239Z,34.90
2022-08-11T14:07:01.202Z,34.40
2022-08-11T14:09:30.314Z,34.40
2022-08-11T14:12:23.204Z,34.50
2022-08-11T14:14:54.274Z,34.70
2022-08-11T14:17:46.763Z,34.80
2022-08-11T14:20:35.429Z,34.90
2022-08-11T14:22:58.830Z,35.20
2022-08-11T14:26:00.818Z,35.30
2022-08-11T14:28:34.081Z,35.50
2022-08-11T14:31:05.332Z,36.40
2022-08-11T14:34:01.114Z,36.20
2022-08-11T14:36:22.057Z,36.40
2022-08-11T14:38:49.909Z,36.20
2022-08-11T14:41:36.630Z,35.70
2022-08-11T14:44:23.699Z,35.50
2022-08-11T14:47:24.209Z,35.70
2022-08-11T14:50:01.835Z,35.70
2022-08-11T14:52:38.965Z,36.00
2022-08-11T14:55:25.824Z,35.50
2022-08-11T14:57:55.474Z,35.40
2022-08-11T15:00:26.020Z,35.30
2022-08-11T15:03:12.729Z,35.40
2022-08-11T15:05:56.030Z,35.40
2022-08-11T15:08:41.975Z,35.50
2022-08-11T15:11:31.168Z,35.20
2022-08-11T15:14:00.581Z,34.70
2022-08-11T15:16:47.713Z,34.80
2022-08-11T15:19:16.636Z,34.90
2022-08-11T15:22:02.020Z,34.90
2022-08-11T15:24:30.929Z,34.50
2022-08-11T15:27:17.805Z,34.00
2022-08-11T15:30:03.936Z,34.00
2022-08-11T15:32:51.405Z,34.40
2022-08-11T15:35:39.042Z,34.40
2022-08-11T15:38:08.066Z,34.20
2022-08-11T15:40:55.381Z,34.20
2022-08-11T15:43:41.917Z,34.40
2022-08-11T15:46:13.305Z,34.70
2022-08-11T15:48:46.194Z,34.80
2022-08-11T15:51:17.576Z,35.10
2022-08-11T15:53:57.098Z,35.00
2022-08-11T15:56:26.887Z,34.40
2022-08-11T15:59:41.595Z,34.10
2022-08-11T16:02:28.547Z,34.10
2022-08-11T16:04:57.832Z,34.00
2022-08-11T16:07:27.536Z,33.60
2022-08-11T16:10:00.567Z,33.30
2022-08-11T16:12:29.910Z,33.20
2022-08-11T16:15:20.329Z,33.20
2022-08-11T16:17:49.987Z,32.90
2022-08-11T16:20:21.491Z,32.40
2022-08-11T16:22:57.056Z,32.40
2022-08-11T16:27:01.929Z,32.10
2022-08-11T16:28:20.625Z,31.90
2022-08-11T16:30:49.168Z,31.70
2022-08-11T16:33:48.186Z,31.50
2022-08-11T16:36:24.811Z,31.40
2022-08-11T16:38:53.639Z,31.20
2022-08-11T16:41:37.438Z,31.10
2022-08-11T16:44:37.360Z,31.00
2022-08-11T16:47:06.821Z,31.00
2022-08-11T16:49:36.093Z,30.80
2022-08-11T16:52:05.848Z,30.80
2022-08-11T16:54:35.008Z,30.80
2022-08-11T16:57:18.780Z,30.90
2022-08-11T16:59:48.156Z,30.70
2022-08-11T17:02:39.125Z,30.60
2022-08-11T17:05:26.467Z,30.50
2022-08-11T17:08:13.486Z,30.40
2022-08-11T17:11:03.923Z,30.30
2022-08-11T17:13:34.658Z,30.20
2022-08-11T17:16:11.542Z,30.20
2022-08-11T17:18:44.845Z,30.20
2022-08-11T17:21:14.838Z,30.10
2022-08-11T17:23:52.857Z,30.00
2022-08-11T17:26:22.671Z,30.00
2022-08-11T17:28:52.604Z,30.00
2022-08-11T17:31:39.595Z,30.00
2022-08-11T17:34:25.295Z,30.00
2022-08-11T17:36:53.466Z,30.00
2022-08-11T17:39:24.307Z,30.00
2022-08-11T17:42:10.241Z,29.90
2022-08-11T17:44:56.886Z,29.80
2022-08-11T17:47:42.534Z,29.80
2022-08-11T17:50:17.746Z,29.70
2022-08-11T17:53:04.530Z,29.70
2022-08-11T17:55:53.695Z,29.60
2022-08-11T17:58:39.449Z,29.70
2022-08-11T18:01:09.239Z,29.70
2022-08-11T18:03:39.683Z,29.60
2022-08-11T18:06:12.284Z,29.60
2022-08-11T18:09:01.155Z,29.50
2022-08-11T18:12:10.410Z,29.40
2022-08-11T18:14:54.976Z,29.30
2022-08-11T18:17:40.298Z,29.20
2022-08-11T18:20:26.243Z,29.20
2022-08-11T18:23:12.958Z,29.20
2022-08-11T18:26:01.076Z,29.10
2022-08-11T18:28:50.407Z,29.00
2022-08-11T18:31:36.985Z,28.90
2022-08-11T18:34:25.126Z,28.80
2022-08-11T18:37:20.575Z,28.80
2022-08-11T18:40:12.316Z,28.60
2022-08-11T18:42:59.228Z,28.50
2022-08-11T18:45:46.807Z,28.30
2022-08-11T18:48:40.597Z,28.10
2022-08-11T18:51:36.233Z,28.00
2022-08-11T18:54:26.032Z,27.90
2022-08-11T18:57:12.029Z,27.80
2022-08-11T18:59:59.040Z,27.70
2022-08-11T19:02:49.588Z,27.70
2022-08-11T19:06:37.073Z,27.60
2022-08-11T19:08:42.124Z,27.50
2022-08-11T19:11:28.817Z,27.40
2022-08-11T19:14:15.043Z,27.20
2022-08-11T19:17:01.153Z,27.10
2022-08-11T19:19:48.886Z,26.90
2022-08-11T19:22:35.208Z,26.80
2022-08-11T19:25:25.288Z,26.50
2022-08-11T19:28:11.759Z,26.50
2022-08-11T19:30:57.830Z,26.30
2022-08-11T19:34:00.126Z,26.30
2022-08-11T19:36:51.459Z,26.20
2022-08-11T19:39:37.780Z,26.10
2022-08-11T19:42:23.639Z,26.00
2022-08-11T19:45:08.783Z,25.90
2022-08-11T19:48:14.126Z,25.90
2022-08-11T19:51:00.580Z,25.80
2022-08-11T19:53:47.495Z,25.80
2022-08-11T19:56:34.119Z,25.70
2022-08-11T19:59:19.647Z,25.60
2022-08-11T20:02:13.381Z,25.60
2022-08-11T20:05:00.250Z,25.50
2022-08-11T20:07:45.935Z,25.50
2022-08-11T20:10:34.740Z,25.40
2022-08-11T20:13:21.759Z,25.30
2022-08-11T20:16:08.691Z,25.30
2022-08-11T20:18:54.303Z,25.30
2022-08-11T20:21:40.173Z,25.20
2022-08-11T20:24:26.215Z,25.20
2022-08-11T20:27:24.779Z,25.20
2022-08-11T20:30:10.693Z,25.20
2022-08-11T20:32:56.902Z,25.10
2022-08-11T20:35:43.048Z,25.00
2022-08-11T20:38:28.872Z,25.00
2022-08-11T20:41:16.159Z,25.00
2022-08-11T20:44:07.614Z,24.90
2022-08-11T20:46:55.257Z,24.90
2022-08-11T20:49:50.619Z,24.90
2022-08-11T20:52:40.262Z,24.90
2022-08-11T20:55:46.215Z,24.80
2022-08-11T20:59:02.365Z,24.70
2022-08-11T21:01:41.381Z,24.70
2022-08-11T21:04:27.774Z,24.70
2022-08-11T21:07:19.870Z,24.70
2022-08-11T21:10:23.744Z,24.70
2022-08-11T21:13:26.339Z,24.60
2022-08-11T21:16:25.427Z,24.60
2022-08-11T21:19:15.122Z,24.60
2022-08-11T21:22:01.241Z,24.50
2022-08-11T21:24:50.365Z,24.40
2022-08-11T21:27:36.596Z,24.40
2022-08-11T21:30:22.543Z,24.30
2022-08-11T21:33:08.959Z,24.30
2022-08-11T21:35:58.110Z,24.20
2022-08-11T21:38:43.924Z,24.20
2022-08-11T21:41:29.604Z,24.10
2022-08-11T21:44:15.839Z,24.00
2022-08-11T21:47:02.110Z,23.90
2022-08-11T21:49:48.241Z,23.90
2022-08-11T21:52:35.121Z,23.80
2022-08-11T21:55:21.262Z,23.80
2022-08-11T21:58:06.835Z,23.70
2022-08-11T22:00:52.609Z,23.70
2022-08-11T22:03:49.653Z,23.70
2022-08-11T22:06:36.939Z,23.60
2022-08-11T22:09:23.597Z,23.60
2022-08-11T22:12:33.588Z,23.60
2022-08-11T22:15:14.953Z,23.50
2022-08-11T22:17:59.998Z,23.50
2022-08-11T22:20:45.762Z,23.50
2022-08-11T22:23:36.286Z,23.40
2022-08-11T22:26:24.250Z,23.40
2022-08-11T22:29:09.657Z,23.40
2022-08-11T22:31:55.469Z,23.40
2022-08-11T22:34:51.221Z,23.30
2022-08-11T22:37:39.376Z,23.30
2022-08-11T22:40:25.601Z,23.30
2022-08-11T22:43:12.011Z,23.30
2022-08-11T22:45:57.204Z,23.30
2022-08-11T22:48:43.761Z,23.30
2022-08-11T22:51:29.368Z,23.30
2022-08-11T22:54:16.250Z,23.30
2022-08-11T22:57:01.437Z,23.20
2022-08-11T22:59:48.407Z,23.20
2022-08-11T23:02:34.115Z,23.20
2022-08-11T23:05:20.010Z,23.20
2022-08-11T23:08:06.550Z,23.20
2022-08-11T23:10:52.148Z,23.20
2022-08-11T23:13:39.098Z,23.10
2022-08-11T23:16:26.001Z,23.10
2022-08-11T23:19:11.516Z,23.10
2022-08-11T23:21:57.010Z,23.00
2022-08-11T23:24:43.013Z,23.00
2022-08-11T23:27:28.584Z,23.00
2022-08-11T23:30:18.551Z,23.00
2022-08-11T23:33:07.474Z,23.00
2022-08-11T23:35:56.650Z,23.00
2022-08-11T23:38:43.211Z,22.90
2022-08-11T23:41:29.198Z,22.90
2022-08-11T23:44:14.658Z,22.90
2022-08-11T23:47:00.702Z,22.90
2022-08-11T23:49:48.090Z,22.90
2022-08-11T23:52:33.818Z,22.80
2022-08-11T23:55:19.127Z,22.80
2022-08-11T23:58:04.256Z,22.90
